createdAt,value
2018-09-03T00:00:50.221Z,2.70
2018-09-03T00:05:54.070Z,3.20
2018-09-03T00:10:58.104Z,5.03
2018-09-03T00:16:02.161Z,2.90
2018-09-03T00:21:05.929Z,3.80
2018-09-03T00:26:10.021Z,3.90
2018-09-03T00:31:19.269Z,3.73
2018-09-03T00:36:28.437Z,3.47
2018-09-03T00:41:37.613Z,3.63
2018-09-03T00:46:46.717Z,3.30
2018-09-03T00:51:50.729Z,4.20
2018-09-03T00:56:54.809Z,3.47
2018-09-03T01:01:58.821Z,3.50
2018-09-03T01:07:02.607Z,3.17
2018-09-03T01:12:06.680Z,3.90
2018-09-03T01:17:10.469Z,4.37
2018-09-03T01:22:14.498Z,3.77
2018-09-03T01:27:18.581Z,3.67
2018-09-03T01:32:22.631Z,4.27
2018-09-03T01:37:26.637Z,3.77
2018-09-03T01:42:30.647Z,3.70
2018-09-03T01:47:34.721Z,3.27
2018-09-03T01:52:38.744Z,3.63
2018-09-03T01:57:43.577Z,3.57
2018-09-03T02:02:47.661Z,4.53
2018-09-03T02:07:51.745Z,3.70
2018-09-03T02:12:55.595Z,4.00
2018-09-03T02:17:59.714Z,3.97
2018-09-03T02:23:03.681Z,3.43
2018-09-03T02:28:07.749Z,3.87
2018-09-03T02:33:11.573Z,4.17
2018-09-03T02:38:15.409Z,4.30
2018-09-03T02:43:19.541Z,3.70
2018-09-03T02:48:23.622Z,4.37
2018-09-03T02:53:27.774Z,3.70
2018-09-03T02:58:31.974Z,4.63
2018-09-03T03:03:35.799Z,3.95
2018-09-03T03:08:40.256Z,4.03
2018-09-03T03:13:44.363Z,3.97
2018-09-03T03:18:48.434Z,3.77
2018-09-03T03:23:52.450Z,3.80
2018-09-03T03:28:56.224Z,4.57
2018-09-03T03:34:00.361Z,4.87
2018-09-03T03:39:06.217Z,4.60
2018-09-03T03:44:10.241Z,3.73
2018-09-03T03:49:14.242Z,4.10
2018-09-03T03:54:18.244Z,3.87
2018-09-03T03:59:22.334Z,4.13
2018-09-03T04:04:26.361Z,4.07
2018-09-03T04:09:30.463Z,3.80
2018-09-03T04:14:34.482Z,3.93
2018-09-03T04:19:38.537Z,4.40
2018-09-03T04:24:42.350Z,4.93
2018-09-03T04:29:46.414Z,4.10
2018-09-03T04:34:50.213Z,4.73
2018-09-03T04:39:54.265Z,4.50
2018-09-03T04:44:58.294Z,4.60
2018-09-03T04:50:02.077Z,4.00
2018-09-03T04:55:05.900Z,4.83
2018-09-03T05:00:09.729Z,5.37
2018-09-03T05:05:13.843Z,4.90
2018-09-03T05:10:17.553Z,4.30
2018-09-03T05:15:21.353Z,4.60
2018-09-03T05:20:25.152Z,4.70
2018-09-03T05:25:29.228Z,5.07
2018-09-03T05:30:33.029Z,5.03
2018-09-03T05:35:37.098Z,6.07
2018-09-03T05:40:41.389Z,5.57
2018-09-03T05:45:46.089Z,7.43
2018-09-03T05:50:50.117Z,5.53
2018-09-03T05:55:53.977Z,5.70
2018-09-03T06:00:58.103Z,5.63
2018-09-03T06:06:02.498Z,4.97
2018-09-03T06:11:07.614Z,6.00
2018-09-03T06:16:11.409Z,6.47
2018-09-03T06:21:15.604Z,6.17
2018-09-03T06:26:19.413Z,7.30
2018-09-03T06:31:23.503Z,6.13
2018-09-03T06:36:27.274Z,7.07
2018-09-03T06:41:32.069Z,6.13
2018-09-03T06:46:35.873Z,6.23
2018-09-03T06:51:39.915Z,6.47
2018-09-03T06:56:43.937Z,6.53
2018-09-03T07:01:47.751Z,6.50
2018-09-03T07:06:51.797Z,6.10
2018-09-03T07:11:55.525Z,5.60
2018-09-03T07:16:59.546Z,5.20
2018-09-03T07:22:03.646Z,4.80
2018-09-03T07:27:07.450Z,5.03
2018-09-03T07:32:11.503Z,7.03
2018-09-03T07:37:15.550Z,4.90
2018-09-03T07:42:19.338Z,6.07
2018-09-03T07:47:23.486Z,5.37
2018-09-03T07:52:27.533Z,5.70
2018-09-03T07:57:31.574Z,5.07
2018-09-03T08:02:35.369Z,5.30
2018-09-03T08:07:39.442Z,5.00
2018-09-03T08:12:43.454Z,7.20
2018-09-03T08:17:47.508Z,4.80
2018-09-03T08:22:51.549Z,6.07
2018-09-03T08:27:55.373Z,6.30
2018-09-03T08:32:59.169Z,5.70
2018-09-03T08:38:03.225Z,6.30
2018-09-03T08:43:07.056Z,6.43
2018-09-03T08:48:11.119Z,6.67
2018-09-03T08:53:15.175Z,6.63
2018-09-03T08:58:19.221Z,7.67
2018-09-03T09:03:28.317Z,6.20
2018-09-03T09:08:32.385Z,7.03
2018-09-03T09:13:36.426Z,9.43
2018-09-03T09:18:40.445Z,6.37
2018-09-03T09:23:44.530Z,6.67
2018-09-03T09:28:48.304Z,8.10
2018-09-03T09:33:53.278Z,7.57
2018-09-03T09:38:57.060Z,7.10
2018-09-03T09:44:01.705Z,8.10
2018-09-03T09:49:05.488Z,8.10
2018-09-03T09:54:09.654Z,8.10
2018-09-03T09:59:13.697Z,6.87
2018-09-03T10:04:17.762Z,7.73
2018-09-03T10:09:21.766Z,9.33
2018-09-03T10:14:25.604Z,8.50
2018-09-03T10:19:29.626Z,9.23
2018-09-03T10:24:33.436Z,8.73
2018-09-03T10:29:37.447Z,8.17
2018-09-03T10:34:41.616Z,10.40
2018-09-03T10:39:45.645Z,11.83
2018-09-03T10:44:49.427Z,8.97
2018-09-03T10:49:53.257Z,8.53
2018-09-03T10:54:57.374Z,8.63
2018-09-03T11:00:01.471Z,8.40
2018-09-03T11:05:05.524Z,8.40
2018-09-03T11:10:09.702Z,9.50
2018-09-03T11:15:20.646Z,9.30
2018-09-03T11:20:30.605Z,10.80
2018-09-03T11:25:35.161Z,10.83
2018-09-03T11:30:39.310Z,9.60
2018-09-03T11:35:43.365Z,11.00
2018-09-03T11:40:47.423Z,9.47
2018-09-03T11:45:51.453Z,8.43
2018-09-03T11:50:55.246Z,10.33
2018-09-03T11:55:59.306Z,8.40
2018-09-03T12:01:03.349Z,9.60
2018-09-03T12:06:07.125Z,9.90
2018-09-03T12:11:10.902Z,9.67
2018-09-03T12:16:17.686Z,9.70
2018-09-03T12:21:21.706Z,8.60
2018-09-03T12:26:25.750Z,9.50
2018-09-03T12:31:29.760Z,9.90
2018-09-03T12:36:33.773Z,9.97
2018-09-03T12:41:37.569Z,11.53
2018-09-03T12:46:41.580Z,11.10
2018-09-03T12:51:45.385Z,9.00
2018-09-03T12:56:49.676Z,9.10
2018-09-03T13:01:53.715Z,10.80
2018-09-03T13:06:57.761Z,12.03
2018-09-03T13:12:01.878Z,11.90
2018-09-03T13:17:05.693Z,11.30
2018-09-03T13:22:10.120Z,12.10
2018-09-03T13:27:14.408Z,11.70
2018-09-03T13:32:18.425Z,10.90
2018-09-03T13:37:22.264Z,10.78
2018-09-03T13:42:26.380Z,14.35
2018-09-03T13:47:30.370Z,13.33
2018-09-03T13:52:34.465Z,12.03
2018-09-03T13:57:38.797Z,11.57
2018-09-03T14:02:42.650Z,12.00
2018-09-03T14:07:46.706Z,11.87
2018-09-03T14:12:50.747Z,12.80
2018-09-03T14:17:54.765Z,10.57
2018-09-03T14:22:59.000Z,12.00
2018-09-03T14:28:03.032Z,13.27
2018-09-03T14:33:08.049Z,12.13
2018-09-03T14:38:12.104Z,9.03
2018-09-03T14:43:16.197Z,10.57
2018-09-03T14:48:20.230Z,10.50
2018-09-03T14:53:24.383Z,12.03
2018-09-03T14:58:28.412Z,11.00
2018-09-03T15:03:32.931Z,10.20
2018-09-03T15:08:37.093Z,10.20
2018-09-03T15:13:40.916Z,7.90
2018-09-03T15:18:44.824Z,9.37
2018-09-03T15:23:49.135Z,8.63
2018-09-03T15:28:53.292Z,6.87
2018-09-03T15:33:57.412Z,9.30
2018-09-03T15:39:01.481Z,10.03
2018-09-03T15:44:05.730Z,8.13
2018-09-03T15:49:09.951Z,9.97
2018-09-03T15:54:14.039Z,9.27
2018-09-03T15:59:17.994Z,11.43
2018-09-03T16:04:22.661Z,12.40
2018-09-03T16:09:26.686Z,10.17
2018-09-03T16:14:37.450Z,9.73
2018-09-03T16:19:41.655Z,9.43
2018-09-03T16:24:45.441Z,11.73
2018-09-03T16:29:49.546Z,12.73
2018-09-03T16:34:53.625Z,12.37
2018-09-03T16:39:57.673Z,12.63
2018-09-03T16:45:01.570Z,9.87
2018-09-03T16:50:05.670Z,11.33
2018-09-03T16:55:09.788Z,11.87
2018-09-03T17:00:13.952Z,11.60
2018-09-03T17:05:17.737Z,12.53
2018-09-03T17:10:21.789Z,9.67
2018-09-03T17:15:25.583Z,9.57
2018-09-03T17:20:29.798Z,8.83
2018-09-03T17:25:33.737Z,8.90
2018-09-03T17:30:37.935Z,12.27
2018-09-03T17:35:41.950Z,11.17
2018-09-03T17:40:46.109Z,12.47
2018-09-03T17:45:49.965Z,11.78
2018-09-03T17:50:54.034Z,11.37
2018-09-03T17:55:57.929Z,10.77
2018-09-03T18:01:02.236Z,9.90
2018-09-03T18:06:06.889Z,11.10
2018-09-03T18:11:10.676Z,9.73
2018-09-03T18:16:14.764Z,10.17
2018-09-03T18:21:18.767Z,11.43
2018-09-03T18:26:22.893Z,13.27
2018-09-03T18:31:26.718Z,11.30
2018-09-03T18:36:30.895Z,13.73
2018-09-03T18:41:34.669Z,10.40
2018-09-03T18:46:38.711Z,13.70
2018-09-03T18:51:42.746Z,14.97
2018-09-03T18:56:46.825Z,18.17
2018-09-03T19:01:50.773Z,16.20
2018-09-03T19:06:54.871Z,11.93
2018-09-03T19:11:58.710Z,11.77
2018-09-03T19:17:02.614Z,12.43
2018-09-03T19:22:06.695Z,15.20
2018-09-03T19:27:11.001Z,14.27
2018-09-03T19:32:14.885Z,16.00
2018-09-03T19:37:18.760Z,13.23
2018-09-03T19:42:22.810Z,13.38
2018-09-03T19:47:26.849Z,13.85
2018-09-03T19:52:30.961Z,14.37
2018-09-03T19:57:35.106Z,13.83
2018-09-03T20:02:38.993Z,15.37
2018-09-03T20:07:42.789Z,16.10
2018-09-03T20:12:46.968Z,17.50
2018-09-03T20:17:50.793Z,19.40
2018-09-03T20:22:54.948Z,18.90
2018-09-03T20:27:58.965Z,23.07
2018-09-03T20:33:02.809Z,21.53
2018-09-03T20:38:07.061Z,24.50
2018-09-03T20:43:11.113Z,21.27
2018-09-03T20:48:15.254Z,24.47
2018-09-03T20:53:19.305Z,23.50
2018-09-03T20:58:23.430Z,24.50
2018-09-03T21:03:27.269Z,24.87
2018-09-03T21:08:31.370Z,21.27
2018-09-03T21:13:35.381Z,24.13
2018-09-03T21:18:39.614Z,21.17
2018-09-03T21:23:43.753Z,26.27
2018-09-03T21:28:47.526Z,24.53
2018-09-03T21:33:51.346Z,24.93
2018-09-03T21:38:55.412Z,24.13
2018-09-03T21:43:59.183Z,22.77
2018-09-03T21:49:03.022Z,24.53
2018-09-03T21:54:06.973Z,24.27
2018-09-03T21:59:11.076Z,20.57
2018-09-03T22:04:14.930Z,25.37
2018-09-03T22:09:19.063Z,23.37
2018-09-03T22:14:22.915Z,26.53
2018-09-03T22:19:26.962Z,22.50
2018-09-03T22:24:31.163Z,26.47
2018-09-03T22:29:34.965Z,23.53
2018-09-03T22:34:38.839Z,24.77
2018-09-03T22:39:42.903Z,26.23
2018-09-03T22:44:47.026Z,24.57
2018-09-03T22:49:50.890Z,25.17
2018-09-03T22:54:55.330Z,23.53
2018-09-03T22:59:59.138Z,23.43
2018-09-03T23:05:03.057Z,28.33
2018-09-03T23:10:07.478Z,27.70
2018-09-03T23:15:11.498Z,27.40
2018-09-03T23:20:15.298Z,26.73
2018-09-03T23:25:19.385Z,25.37
2018-09-03T23:30:23.897Z,28.40
2018-09-03T23:35:27.697Z,33.47
2018-09-03T23:40:32.737Z,34.47
2018-09-03T23:45:36.819Z,33.67
2018-09-03T23:50:40.896Z,30.60
2018-09-03T23:55:44.937Z,33.60
